createdAt,value
2022-10-06T00:01:09.775Z,14.11
2022-10-06T00:03:38.699Z,14.07
2022-10-06T00:06:07.723Z,14.04
2022-10-06T00:08:38.344Z,14.02
2022-10-06T00:11:08.719Z,13.99
2022-10-06T00:13:36.828Z,13.97
2022-10-06T00:16:17.217Z,13.95
2022-10-06T00:18:45.639Z,13.92
2022-10-06T00:21:14.183Z,13.89
2022-10-06T00:23:42.318Z,13.87
2022-10-06T00:26:17.020Z,13.83
2022-10-06T00:28:47.925Z,13.80
2022-10-06T00:31:17.715Z,13.76
2022-10-06T00:33:46.518Z,13.74
2022-10-06T00:36:14.687Z,13.71
2022-10-06T00:38:42.324Z,13.67
2022-10-06T00:41:15.783Z,13.63
2022-10-06T00:43:47.912Z,13.60
2022-10-06T00:46:45.316Z,13.57
2022-10-06T00:49:23.581Z,13.52
2022-10-06T00:51:57.809Z,13.50
2022-10-06T00:54:25.766Z,13.48
2022-10-06T00:56:53.123Z,13.45
2022-10-06T00:59:20.684Z,13.43
2022-10-06T01:02:00.664Z,13.41
2022-10-06T01:04:33.627Z,13.38
2022-10-06T01:07:04.158Z,13.36
2022-10-06T01:09:31.741Z,13.35
2022-10-06T01:12:04.185Z,13.35
2022-10-06T01:14:33.013Z,13.32
2022-10-06T01:17:11.604Z,13.31
2022-10-06T01:19:53.782Z,13.28
2022-10-06T01:22:32.873Z,13.27
2022-10-06T01:25:01.233Z,13.24
2022-10-06T01:27:32.980Z,13.22
2022-10-06T01:30:01.640Z,13.20
2022-10-06T01:32:36.162Z,13.21
2022-10-06T01:35:08.068Z,13.18
2022-10-06T01:37:35.780Z,13.17
2022-10-06T01:40:04.936Z,13.16
2022-10-06T01:42:33.526Z,13.15
2022-10-06T01:45:04.272Z,13.13
2022-10-06T01:47:32.459Z,13.14
2022-10-06T01:50:00.158Z,13.12
2022-10-06T01:52:29.494Z,13.12
2022-10-06T01:54:56.868Z,13.09
2022-10-06T01:57:24.634Z,13.08
2022-10-06T01:59:55.003Z,13.06
2022-10-06T02:02:24.036Z,13.01
2022-10-06T02:04:51.403Z,13.00
2022-10-06T02:07:19.481Z,12.98
2022-10-06T02:09:47.398Z,12.96
2022-10-06T02:12:15.883Z,12.94
2022-10-06T02:14:43.268Z,12.92
2022-10-06T02:17:10.644Z,12.91
2022-10-06T02:19:38.284Z,12.88
2022-10-06T02:22:05.638Z,12.85
2022-10-06T02:24:33.427Z,12.83
2022-10-06T02:27:00.976Z,12.81
2022-10-06T02:29:28.374Z,12.79
2022-10-06T02:31:56.716Z,12.76
2022-10-06T02:34:24.733Z,12.74
2022-10-06T02:36:53.981Z,12.72
2022-10-06T02:39:21.464Z,12.70
2022-10-06T02:41:48.856Z,12.70
2022-10-06T02:44:16.193Z,12.69
2022-10-06T02:46:45.419Z,12.67
2022-10-06T02:49:13.594Z,12.66
2022-10-06T02:51:40.961Z,12.64
2022-10-06T02:54:08.681Z,12.62
2022-10-06T02:56:37.822Z,12.59
2022-10-06T02:59:05.188Z,12.58
2022-10-06T03:01:35.171Z,12.56
2022-10-06T03:04:12.077Z,12.52
2022-10-06T03:06:42.056Z,12.51
2022-10-06T03:09:38.613Z,12.48
2022-10-06T03:12:05.977Z,12.45
2022-10-06T03:14:38.158Z,12.42
2022-10-06T03:17:09.869Z,12.41
2022-10-06T03:19:41.019Z,12.39
2022-10-06T03:22:10.540Z,12.37
2022-10-06T03:24:44.025Z,12.35
2022-10-06T03:27:11.389Z,12.35
2022-10-06T03:29:39.002Z,12.31
2022-10-06T03:32:06.498Z,12.29
2022-10-06T03:34:34.841Z,12.26
2022-10-06T03:37:05.088Z,12.25
2022-10-06T03:39:34.151Z,12.23
2022-10-06T03:42:02.410Z,12.19
2022-10-06T03:44:32.218Z,12.16
2022-10-06T03:46:59.732Z,12.13
2022-10-06T03:49:27.219Z,12.11
2022-10-06T03:51:54.859Z,12.06
2022-10-06T03:54:26.875Z,12.03
2022-10-06T03:56:54.438Z,12.01
2022-10-06T03:59:22.112Z,11.98
2022-10-06T04:01:52.829Z,11.95
2022-10-06T04:04:25.448Z,11.92
2022-10-06T04:06:58.640Z,11.89
2022-10-06T04:09:26.788Z,11.85
2022-10-06T04:11:54.209Z,11.84
2022-10-06T04:14:21.764Z,11.80
2022-10-06T04:16:50.973Z,11.78
2022-10-06T04:19:25.588Z,11.76
2022-10-06T04:21:56.014Z,11.73
2022-10-06T04:24:25.364Z,11.71
2022-10-06T04:26:53.394Z,11.68
2022-10-06T04:29:22.248Z,11.64
2022-10-06T04:31:54.488Z,11.60
2022-10-06T04:34:28.083Z,11.58
2022-10-06T04:36:55.669Z,11.55
2022-10-06T04:39:23.203Z,11.54
2022-10-06T04:41:50.599Z,11.51
2022-10-06T04:44:28.661Z,11.49
2022-10-06T04:47:00.447Z,11.48
2022-10-06T04:49:28.078Z,11.47
2022-10-06T04:51:57.230Z,11.46
2022-10-06T04:54:26.433Z,11.44
2022-10-06T04:56:58.097Z,11.40
2022-10-06T04:59:46.799Z,11.39
2022-10-06T05:02:16.974Z,11.35
2022-10-06T05:04:45.408Z,11.33
2022-10-06T05:07:14.322Z,11.32
2022-10-06T05:09:42.433Z,11.29
2022-10-06T05:12:12.601Z,11.26
2022-10-06T05:14:40.864Z,11.24
2022-10-06T05:17:08.424Z,11.22
2022-10-06T05:19:37.525Z,11.20
2022-10-06T05:22:05.321Z,11.19
2022-10-06T05:24:33.595Z,11.16
2022-10-06T05:27:03.750Z,11.16
2022-10-06T05:29:33.989Z,11.14
2022-10-06T05:32:02.882Z,11.10
2022-10-06T05:34:30.819Z,11.07
2022-10-06T05:36:58.206Z,11.06
2022-10-06T05:39:25.613Z,11.03
2022-10-06T05:41:56.937Z,10.99
2022-10-06T05:44:25.513Z,10.97
2022-10-06T05:46:53.820Z,10.95
2022-10-06T05:49:21.261Z,10.94
2022-10-06T05:51:53.711Z,10.92
2022-10-06T05:54:25.560Z,10.88
2022-10-06T05:56:54.085Z,10.87
2022-10-06T05:59:22.393Z,10.88
2022-10-06T06:01:50.320Z,10.84
2022-10-06T06:04:32.289Z,10.83
2022-10-06T06:07:01.445Z,10.82
2022-10-06T06:09:29.017Z,10.81
2022-10-06T06:12:01.182Z,10.80
2022-10-06T06:15:07.301Z,10.77
2022-10-06T06:17:52.317Z,10.74
2022-10-06T06:20:19.660Z,10.73
2022-10-06T06:22:52.422Z,10.74
2022-10-06T06:25:21.578Z,10.73
2022-10-06T06:27:49.075Z,10.73
2022-10-06T06:30:16.830Z,10.74
2022-10-06T06:32:44.510Z,10.75
2022-10-06T06:35:12.035Z,10.79
2022-10-06T06:37:39.421Z,10.86
2022-10-06T06:40:07.534Z,10.95
2022-10-06T06:42:38.222Z,11.03
2022-10-06T06:45:25.532Z,11.14
2022-10-06T06:48:02.348Z,11.23
2022-10-06T06:50:31.646Z,11.34
2022-10-06T06:53:02.497Z,11.41
2022-10-06T06:55:31.146Z,11.47
2022-10-06T06:57:58.517Z,11.52
2022-10-06T07:00:25.929Z,11.58
2022-10-06T07:03:00.641Z,11.64
2022-10-06T07:05:30.556Z,11.69
2022-10-06T07:07:57.962Z,11.73
2022-10-06T07:10:27.921Z,11.79
2022-10-06T07:12:55.550Z,11.84
2022-10-06T07:15:41.508Z,11.90
2022-10-06T07:18:28.849Z,11.92
2022-10-06T07:21:14.988Z,11.99
2022-10-06T07:24:01.136Z,12.03
2022-10-06T07:26:32.107Z,12.07
2022-10-06T07:29:00.118Z,12.12
2022-10-06T07:31:33.570Z,12.18
2022-10-06T07:34:04.017Z,12.22
2022-10-06T07:36:32.581Z,12.27
2022-10-06T07:39:00.185Z,12.32
2022-10-06T07:41:30.687Z,12.37
2022-10-06T07:44:04.592Z,12.41
2022-10-06T07:46:34.905Z,12.42
2022-10-06T07:49:17.271Z,12.45
2022-10-06T07:51:45.196Z,12.50
2022-10-06T07:54:12.581Z,12.55
2022-10-06T07:56:53.524Z,12.60
2022-10-06T07:59:21.640Z,12.64
2022-10-06T08:01:51.183Z,12.67
2022-10-06T08:04:18.634Z,12.72
2022-10-06T08:06:47.576Z,12.77
2022-10-06T08:09:14.985Z,12.81
2022-10-06T08:11:43.830Z,12.85
2022-10-06T08:14:11.213Z,12.91
2022-10-06T08:16:38.673Z,12.95
2022-10-06T08:19:06.057Z,13.00
2022-10-06T08:21:38.057Z,13.07
2022-10-06T08:24:05.857Z,13.15
2022-10-06T08:26:34.353Z,13.25
2022-10-06T08:29:03.239Z,13.35
2022-10-06T08:31:31.873Z,13.48
2022-10-06T08:33:59.534Z,13.57
2022-10-06T08:36:31.512Z,13.66
2022-10-06T08:39:01.048Z,13.76
2022-10-06T08:41:43.013Z,13.85
2022-10-06T08:44:18.141Z,13.92
2022-10-06T08:47:01.561Z,14.00
2022-10-06T08:49:39.941Z,14.10
2022-10-06T08:52:29.260Z,14.16
2022-10-06T08:55:26.195Z,14.20
2022-10-06T08:58:14.198Z,14.30
2022-10-06T09:00:41.722Z,14.39
2022-10-06T09:03:23.619Z,14.51
2022-10-06T09:05:57.028Z,14.58
2022-10-06T09:08:58.476Z,14.63
2022-10-06T09:11:46.802Z,14.66
2022-10-06T09:14:29.598Z,14.74
2022-10-06T09:17:04.422Z,14.81
2022-10-06T09:19:43.299Z,14.92
2022-10-06T09:22:24.873Z,15.05
2022-10-06T09:24:59.608Z,15.13
2022-10-06T09:27:36.604Z,15.19
2022-10-06T09:30:06.142Z,15.25
2022-10-06T09:32:34.768Z,15.33
2022-10-06T09:35:18.045Z,15.40
2022-10-06T09:38:08.519Z,15.49
2022-10-06T09:40:59.181Z,15.58
2022-10-06T09:43:31.378Z,15.62
2022-10-06T09:46:28.985Z,15.68
2022-10-06T09:49:17.333Z,15.70
2022-10-06T09:52:13.369Z,15.74
2022-10-06T09:54:43.629Z,15.79
2022-10-06T09:57:24.921Z,15.84
2022-10-06T09:59:52.791Z,15.88
2022-10-06T10:02:36.521Z,15.99
2022-10-06T10:05:20.298Z,16.04
2022-10-06T10:08:06.152Z,16.13
2022-10-06T10:10:35.860Z,16.22
2022-10-06T10:13:26.793Z,16.30
2022-10-06T10:16:01.803Z,16.39
2022-10-06T10:18:31.882Z,16.44
2022-10-06T10:21:06.066Z,16.54
2022-10-06T10:23:43.169Z,16.65
2022-10-06T10:26:44.773Z,16.72
2022-10-06T10:29:40.161Z,16.80
2022-10-06T10:32:24.759Z,16.87
2022-10-06T10:34:59.309Z,16.87
2022-10-06T10:37:47.221Z,16.88
2022-10-06T10:40:35.119Z,16.92
2022-10-06T10:43:51.766Z,16.94
2022-10-06T10:46:30.942Z,16.94
2022-10-06T10:49:11.952Z,16.97
2022-10-06T10:51:56.561Z,17.01
2022-10-06T10:54:46.244Z,17.10
2022-10-06T10:57:18.018Z,17.18
2022-10-06T11:00:04.078Z,17.16
2022-10-06T11:02:33.224Z,17.08
2022-10-06T11:05:34.811Z,17.03
2022-10-06T11:08:55.118Z,17.00
2022-10-06T11:12:03.524Z,17.04
2022-10-06T11:15:05.762Z,17.12
2022-10-06T11:17:46.845Z,17.07
2022-10-06T11:20:38.684Z,17.08
2022-10-06T11:23:28.699Z,17.09
2022-10-06T11:26:11.129Z,17.19
2022-10-06T11:28:53.997Z,17.30
2022-10-06T11:31:42.601Z,17.39
2022-10-06T11:34:10.521Z,17.43
2022-10-06T11:37:13.513Z,17.48
2022-10-06T11:40:17.688Z,17.59
2022-10-06T11:43:00.863Z,17.72
2022-10-06T11:45:54.733Z,17.82
2022-10-06T11:48:30.893Z,17.93
2022-10-06T11:51:17.096Z,18.01
2022-10-06T11:53:45.411Z,18.05
2022-10-06T11:56:18.715Z,18.04
2022-10-06T11:58:52.028Z,18.05
2022-10-06T12:01:31.223Z,18.11
2022-10-06T12:04:07.590Z,18.16
2022-10-06T12:06:54.167Z,18.20
2022-10-06T12:09:31.071Z,18.22
2022-10-06T12:12:26.653Z,18.23
2022-10-06T12:18:22.736Z,18.27
2022-10-06T12:21:19.402Z,18.30
2022-10-06T12:24:05.276Z,18.31
2022-10-06T12:27:06.584Z,18.35
2022-10-06T12:29:48.874Z,18.30
2022-10-06T12:32:37.498Z,18.29
2022-10-06T12:35:07.625Z,18.35
2022-10-06T12:37:43.963Z,18.40
2022-10-06T12:40:43.625Z,18.46
2022-10-06T12:43:14.287Z,18.52
2022-10-06T12:45:57.780Z,18.57
2022-10-06T12:49:07.445Z,18.59
2022-10-06T12:51:40.232Z,18.46
2022-10-06T12:54:19.386Z,18.41
2022-10-06T12:57:13.241Z,18.30
2022-10-06T12:59:41.156Z,18.29
2022-10-06T13:02:17.546Z,18.35
2022-10-06T13:04:59.183Z,18.42
2022-10-06T13:07:30.925Z,18.39
2022-10-06T13:10:13.685Z,18.40
2022-10-06T13:12:52.036Z,18.46
2022-10-06T13:15:35.533Z,18.56
2022-10-06T13:18:16.945Z,18.63
2022-10-06T13:20:50.392Z,18.69
2022-10-06T13:23:33.831Z,18.74
2022-10-06T13:26:04.744Z,18.78
2022-10-06T13:28:43.966Z,18.78
2022-10-06T13:31:20.457Z,18.76
2022-10-06T13:34:03.024Z,18.78
2022-10-06T13:36:38.712Z,18.80
2022-10-06T13:39:16.017Z,18.82
2022-10-06T13:41:49.347Z,18.82
2022-10-06T13:44:19.685Z,18.86
2022-10-06T13:46:52.991Z,18.93
2022-10-06T13:49:31.175Z,18.96
2022-10-06T13:52:15.446Z,18.88
2022-10-06T13:54:51.657Z,18.88
2022-10-06T13:57:42.678Z,18.84
2022-10-06T14:00:23.081Z,18.83
2022-10-06T14:03:28.309Z,18.82
2022-10-06T14:06:22.123Z,18.76
2022-10-06T14:08:57.805Z,18.70
2022-10-06T14:11:29.678Z,18.74
2022-10-06T14:14:06.008Z,18.81
2022-10-06T14:16:33.482Z,18.88
2022-10-06T14:19:04.808Z,18.92
2022-10-06T14:21:34.117Z,18.94
2022-10-06T14:24:07.561Z,18.97
2022-10-06T14:26:37.449Z,18.99
2022-10-06T14:29:04.859Z,19.04
2022-10-06T14:31:34.037Z,19.05
2022-10-06T14:34:03.165Z,19.05
2022-10-06T14:36:37.086Z,19.05
2022-10-06T14:39:07.275Z,19.04
2022-10-06T14:41:34.748Z,19.02
2022-10-06T14:44:12.359Z,19.00
2022-10-06T14:46:42.533Z,19.01
2022-10-06T14:49:15.869Z,19.02
2022-10-06T14:51:45.020Z,19.05
2022-10-06T14:54:15.473Z,19.08
2022-10-06T14:56:42.935Z,19.16
2022-10-06T14:59:16.725Z,19.18
2022-10-06T15:01:45.659Z,19.17
2022-10-06T15:04:20.145Z,19.15
2022-10-06T15:07:06.470Z,19.13
2022-10-06T15:09:35.686Z,19.14
2022-10-06T15:12:03.865Z,19.15
2022-10-06T15:14:31.901Z,19.13
2022-10-06T15:17:00.081Z,19.09
2022-10-06T15:19:27.598Z,19.06
2022-10-06T15:21:55.132Z,19.05
2022-10-06T15:24:22.537Z,19.00
2022-10-06T15:27:08.417Z,18.97
2022-10-06T15:29:36.020Z,18.90
2022-10-06T15:32:06.074Z,18.87
2022-10-06T15:34:34.590Z,18.83
2022-10-06T15:37:02.373Z,18.75
2022-10-06T15:39:34.493Z,18.65
2022-10-06T15:42:02.149Z,18.62
2022-10-06T15:44:34.616Z,18.60
2022-10-06T15:47:05.555Z,18.58
2022-10-06T15:49:37.962Z,18.50
2022-10-06T15:52:06.485Z,18.42
2022-10-06T15:54:37.594Z,18.30
2022-10-06T15:57:14.029Z,18.19
2022-10-06T15:59:44.503Z,18.08
2022-10-06T16:02:17.743Z,18.00
2022-10-06T16:05:04.320Z,17.87
2022-10-06T16:07:33.859Z,17.71
2022-10-06T16:10:01.314Z,17.61
2022-10-06T16:12:28.816Z,17.50
2022-10-06T16:14:56.147Z,17.41
2022-10-06T16:17:23.820Z,17.31
2022-10-06T16:19:51.145Z,17.22
2022-10-06T16:22:19.225Z,17.11
2022-10-06T16:24:46.795Z,17.00
2022-10-06T16:27:15.431Z,16.87
2022-10-06T16:29:42.932Z,16.79
2022-10-06T16:32:10.694Z,16.72
2022-10-06T16:34:38.015Z,16.64
2022-10-06T16:37:05.556Z,16.57
2022-10-06T16:39:33.586Z,16.50
2022-10-06T16:42:00.966Z,16.43
2022-10-06T16:44:28.302Z,16.35
2022-10-06T16:46:55.788Z,16.28
2022-10-06T16:49:24.377Z,16.21
2022-10-06T16:51:51.725Z,16.13
2022-10-06T16:54:19.127Z,16.06
2022-10-06T16:56:54.755Z,15.98
2022-10-06T16:59:25.952Z,15.89
2022-10-06T17:01:53.588Z,15.81
2022-10-06T17:04:24.175Z,15.73
2022-10-06T17:06:55.106Z,15.63
2022-10-06T17:09:26.253Z,15.53
2022-10-06T17:11:57.334Z,15.45
2022-10-06T17:14:26.012Z,15.37
2022-10-06T17:16:56.146Z,15.28
2022-10-06T17:19:28.441Z,15.18
2022-10-06T17:21:59.396Z,15.08
2022-10-06T17:24:29.482Z,15.00
2022-10-06T17:26:58.040Z,14.94
2022-10-06T17:29:26.535Z,14.87
2022-10-06T17:31:58.403Z,14.78
2022-10-06T17:34:30.669Z,14.68
2022-10-06T17:37:01.474Z,14.59
2022-10-06T17:39:28.950Z,14.49
2022-10-06T17:41:56.687Z,14.42
2022-10-06T17:44:28.433Z,14.34
2022-10-06T17:46:59.010Z,14.27
2022-10-06T17:49:28.540Z,14.21
2022-10-06T17:51:55.961Z,14.12
2022-10-06T17:54:26.764Z,14.02
2022-10-06T17:56:57.878Z,13.91
2022-10-06T17:59:30.427Z,13.82
2022-10-06T18:02:02.493Z,13.73
2022-10-06T18:04:30.339Z,13.65
2022-10-06T18:06:57.788Z,13.58
2022-10-06T18:09:25.348Z,13.49
2022-10-06T18:11:56.378Z,13.43
2022-10-06T18:14:27.909Z,13.34
2022-10-06T18:17:01.578Z,13.25
2022-10-06T18:19:32.675Z,13.16
2022-10-06T18:22:13.636Z,13.08
2022-10-06T18:24:41.267Z,13.00
2022-10-06T18:27:09.241Z,12.95
2022-10-06T18:29:38.579Z,12.91
2022-10-06T18:37:42.476Z,12.73
2022-10-06T18:40:11.034Z,12.69
2022-10-06T18:42:39.359Z,12.64
2022-10-06T18:45:27.658Z,12.59
2022-10-06T18:48:13.648Z,12.53
2022-10-06T18:50:41.059Z,12.47
2022-10-06T18:53:12.053Z,12.43
2022-10-06T18:55:39.429Z,12.35
2022-10-06T18:58:06.781Z,12.30
2022-10-06T19:00:34.110Z,12.25
2022-10-06T19:03:01.467Z,12.17
2022-10-06T19:05:28.918Z,12.09
2022-10-06T19:07:56.384Z,12.02
2022-10-06T19:10:23.748Z,11.95
2022-10-06T19:12:51.149Z,11.89
2022-10-06T19:15:21.079Z,11.84
2022-10-06T19:17:49.898Z,11.80
2022-10-06T19:20:18.363Z,11.77
2022-10-06T19:22:47.447Z,11.71
2022-10-06T19:25:18.701Z,11.64
2022-10-06T19:27:46.920Z,11.58
2022-10-06T19:30:14.735Z,11.51
2022-10-06T19:32:42.285Z,11.45
2022-10-06T19:35:10.754Z,11.40
2022-10-06T19:37:39.254Z,11.33
2022-10-06T19:40:08.614Z,11.28
2022-10-06T19:42:48.015Z,11.23
2022-10-06T19:45:17.683Z,11.20
2022-10-06T19:47:46.099Z,11.15
2022-10-06T19:50:16.882Z,11.09
2022-10-06T19:52:45.192Z,11.05
2022-10-06T19:55:12.558Z,10.98
2022-10-06T19:57:40.279Z,10.94
2022-10-06T20:00:11.713Z,10.91
2022-10-06T20:02:46.445Z,10.86
2022-10-06T20:05:16.502Z,10.83
2022-10-06T20:07:47.066Z,10.80
2022-10-06T20:10:15.064Z,10.78
2022-10-06T20:12:42.468Z,10.75
2022-10-06T20:15:10.515Z,10.73
2022-10-06T20:17:37.982Z,10.69
2022-10-06T20:20:05.878Z,10.65
2022-10-06T20:22:33.265Z,10.61
2022-10-06T20:25:01.925Z,10.57
2022-10-06T20:27:29.616Z,10.53
2022-10-06T20:29:57.918Z,10.51
2022-10-06T20:32:25.443Z,10.49
2022-10-06T20:34:52.996Z,10.46
2022-10-06T20:37:20.331Z,10.46
2022-10-06T20:40:06.089Z,10.45
2022-10-06T20:42:33.638Z,10.41
2022-10-06T20:45:00.977Z,10.38
2022-10-06T20:47:29.688Z,10.35
2022-10-06T20:49:57.016Z,10.35
2022-10-06T20:52:24.409Z,10.34
2022-10-06T20:54:51.981Z,10.34
2022-10-06T20:57:19.585Z,10.33
2022-10-06T20:59:47.051Z,10.34
2022-10-06T21:02:14.529Z,10.36
2022-10-06T21:07:15.474Z,10.42
2022-10-06T21:09:43.064Z,10.45
2022-10-06T21:12:10.434Z,10.47
2022-10-06T21:14:40.037Z,10.50
2022-10-06T21:17:07.462Z,10.50
2022-10-06T21:19:37.605Z,10.50
2022-10-06T21:22:05.693Z,10.50
2022-10-06T21:24:33.056Z,10.51
2022-10-06T21:27:00.508Z,10.55
2022-10-06T21:29:27.883Z,10.57
2022-10-06T21:31:55.362Z,10.57
2022-10-06T21:34:22.816Z,10.57
2022-10-06T21:36:50.467Z,10.58
2022-10-06T21:39:17.873Z,10.57
2022-10-06T21:41:45.244Z,10.59
2022-10-06T21:44:18.211Z,10.59
2022-10-06T21:46:52.495Z,10.59
2022-10-06T21:49:23.378Z,10.57
2022-10-06T21:51:56.523Z,10.56
2022-10-06T21:54:24.319Z,10.54
2022-10-06T21:56:52.457Z,10.53
2022-10-06T21:59:19.969Z,10.52
2022-10-06T22:01:50.246Z,10.50
2022-10-06T22:04:18.468Z,10.48
2022-10-06T22:06:49.843Z,10.46
2022-10-06T22:09:22.555Z,10.41
2022-10-06T22:11:50.076Z,10.38
2022-10-06T22:14:19.920Z,10.33
2022-10-06T22:16:47.687Z,10.28
2022-10-06T22:19:16.367Z,10.24
2022-10-06T22:21:47.833Z,10.20
2022-10-06T22:24:19.920Z,10.15
2022-10-06T22:26:48.785Z,10.08
2022-10-06T22:29:18.955Z,10.06
2022-10-06T22:31:47.983Z,10.02
2022-10-06T22:34:19.197Z,10.00
2022-10-06T22:36:47.125Z,9.96
2022-10-06T22:39:14.494Z,9.92
2022-10-06T22:41:42.081Z,9.87
2022-10-06T22:44:09.551Z,9.86
2022-10-06T22:46:38.075Z,9.84
2022-10-06T22:49:06.185Z,9.83
2022-10-06T22:51:33.884Z,9.84
2022-10-06T22:54:01.867Z,9.83
2022-10-06T22:56:32.509Z,9.82
2022-10-06T22:59:00.942Z,9.82
2022-10-06T23:01:29.922Z,9.83
2022-10-06T23:03:58.307Z,9.83
2022-10-06T23:06:30.856Z,9.84
2022-10-06T23:08:58.488Z,9.84
2022-10-06T23:11:25.894Z,9.87
2022-10-06T23:13:53.523Z,9.89
2022-10-06T23:16:21.615Z,9.91
2022-10-06T23:18:52.173Z,9.92
2022-10-06T23:21:24.002Z,9.91
2022-10-06T23:23:55.586Z,9.89
2022-10-06T23:26:23.919Z,9.90
2022-10-06T23:28:59.067Z,9.90
2022-10-06T23:31:28.833Z,9.90
2022-10-06T23:33:56.338Z,9.92
2022-10-06T23:36:23.752Z,9.93
2022-10-06T23:38:51.260Z,9.95
2022-10-06T23:41:19.531Z,9.95
2022-10-06T23:43:47.025Z,9.96
2022-10-06T23:46:14.819Z,9.97
2022-10-06T23:48:42.615Z,9.96
2022-10-06T23:51:15.384Z,9.97
2022-10-06T23:53:43.762Z,9.95
2022-10-06T23:56:11.275Z,9.94
2022-10-06T23:58:39.090Z,9.93
